createdAt,value
2023-03-05T00:01:10.572Z,52.80
2023-03-05T00:03:37.578Z,53.20
2023-03-05T00:06:05.041Z,53.30
2023-03-05T00:08:32.805Z,53.00
2023-03-05T00:11:09.247Z,53.40
2023-03-05T00:13:36.919Z,53.10
2023-03-05T00:16:05.965Z,53.10
2023-03-05T00:18:33.636Z,53.80
2023-03-05T00:21:00.504Z,53.30
2023-03-05T00:23:28.019Z,53.70
2023-03-05T00:25:54.844Z,53.90
2023-03-05T00:28:21.816Z,53.90
2023-03-05T00:30:48.610Z,54.00
2023-03-05T00:33:15.456Z,54.00
2023-03-05T00:35:46.545Z,54.10
2023-03-05T00:38:13.793Z,54.50
2023-03-05T00:40:41.782Z,53.80
2023-03-05T00:43:09.304Z,53.80
2023-03-05T00:45:36.443Z,54.00
2023-03-05T00:48:04.170Z,54.70
2023-03-05T00:50:31.138Z,54.50
2023-03-05T00:52:58.205Z,54.90
2023-03-05T00:55:25.707Z,54.70
2023-03-05T00:57:52.579Z,54.20
2023-03-05T01:00:19.664Z,54.20
2023-03-05T01:02:46.545Z,54.20
2023-03-05T01:05:14.551Z,54.50
2023-03-05T01:07:41.669Z,54.30
2023-03-05T01:10:09.896Z,54.00
2023-03-05T01:12:37.760Z,53.10
2023-03-05T01:15:05.597Z,53.60
2023-03-05T01:17:32.445Z,54.30
2023-03-05T01:19:59.294Z,53.10
2023-03-05T01:22:26.243Z,52.50
2023-03-05T01:24:53.083Z,53.10
2023-03-05T01:27:20.038Z,53.50
2023-03-05T01:29:46.871Z,54.10
2023-03-05T01:32:13.718Z,54.00
2023-03-05T01:34:41.920Z,54.20
2023-03-05T01:37:09.476Z,54.70
2023-03-05T01:39:36.466Z,56.40
2023-03-05T01:42:04.444Z,55.70
2023-03-05T01:44:31.984Z,55.40
2023-03-05T01:46:59.054Z,55.20
2023-03-05T01:49:38.617Z,56.00
2023-03-05T01:52:19.681Z,55.60
2023-03-05T01:54:53.515Z,56.20
2023-03-05T01:57:25.636Z,55.90
2023-03-05T01:59:56.918Z,55.80
2023-03-05T02:02:24.902Z,55.60
2023-03-05T02:04:56.611Z,55.90
2023-03-05T02:07:24.350Z,55.90
2023-03-05T02:09:51.236Z,56.10
2023-03-05T02:12:18.357Z,56.10
2023-03-05T02:14:48.641Z,56.20
2023-03-05T02:17:16.578Z,56.30
2023-03-05T02:20:06.753Z,56.60
2023-03-05T02:22:33.583Z,56.90
2023-03-05T02:25:00.410Z,56.60
2023-03-05T02:27:35.061Z,56.10
2023-03-05T02:30:02.647Z,55.90
2023-03-05T02:32:29.556Z,55.90
2023-03-05T02:34:56.724Z,55.70
2023-03-05T02:37:23.561Z,56.50
2023-03-05T02:39:51.960Z,56.30
2023-03-05T02:42:18.863Z,55.40
2023-03-05T02:44:45.722Z,56.30
2023-03-05T02:47:12.557Z,56.00
2023-03-05T02:49:39.964Z,56.40
2023-03-05T02:52:06.986Z,56.40
2023-03-05T02:54:33.844Z,56.40
2023-03-05T02:57:03.097Z,56.20
2023-03-05T02:59:30.221Z,56.20
2023-03-05T03:01:57.231Z,55.20
2023-03-05T03:04:24.120Z,55.10
2023-03-05T03:06:50.905Z,54.40
2023-03-05T03:09:17.837Z,54.00
2023-03-05T03:11:44.621Z,53.30
2023-03-05T03:14:11.380Z,53.40
2023-03-05T03:16:38.233Z,53.00
2023-03-05T03:19:05.616Z,53.10
2023-03-05T03:21:32.522Z,53.50
2023-03-05T03:23:59.375Z,54.20
2023-03-05T03:26:26.294Z,54.70
2023-03-05T03:28:53.154Z,54.60
2023-03-05T03:31:20.106Z,55.00
2023-03-05T03:33:46.927Z,54.70
2023-03-05T03:36:13.929Z,54.20
2023-03-05T03:38:40.800Z,54.70
2023-03-05T03:41:08.666Z,55.70
2023-03-05T03:43:36.847Z,55.50
2023-03-05T03:46:06.351Z,55.40
2023-03-05T03:48:33.506Z,55.60
2023-03-05T03:51:03.490Z,55.40
2023-03-05T03:53:30.268Z,54.80
2023-03-05T03:56:00.657Z,55.40
2023-03-05T03:58:27.455Z,56.20
2023-03-05T04:00:54.252Z,55.90
2023-03-05T04:03:21.147Z,56.00
2023-03-05T04:05:47.969Z,55.80
2023-03-05T04:08:14.877Z,56.10
2023-03-05T04:10:41.859Z,56.00
2023-03-05T04:13:09.103Z,54.80
2023-03-05T04:15:36.201Z,54.40
2023-03-05T04:18:03.048Z,54.80
2023-03-05T04:20:29.910Z,55.10
2023-03-05T04:22:56.834Z,55.60
2023-03-05T04:25:23.748Z,55.40
2023-03-05T04:27:51.282Z,55.60
2023-03-05T04:30:18.367Z,56.00
2023-03-05T04:32:45.286Z,55.70
2023-03-05T04:35:12.115Z,55.70
2023-03-05T04:37:39.037Z,55.70
2023-03-05T04:40:06.610Z,55.50
2023-03-05T04:42:33.601Z,55.40
2023-03-05T04:45:00.518Z,55.70
2023-03-05T04:47:27.321Z,56.10
2023-03-05T04:49:54.093Z,56.10
2023-03-05T04:52:22.031Z,55.50
2023-03-05T04:54:48.886Z,56.70
2023-03-05T04:57:15.954Z,56.50
2023-03-05T04:59:42.822Z,56.60
2023-03-05T05:02:09.822Z,56.50
2023-03-05T05:04:36.743Z,56.70
2023-03-05T05:07:04.814Z,57.10
2023-03-05T05:09:31.648Z,57.00
2023-03-05T05:11:58.734Z,57.30
2023-03-05T05:14:25.707Z,57.70
2023-03-05T05:16:52.617Z,57.90
2023-03-05T05:19:19.493Z,58.20
2023-03-05T05:21:47.342Z,58.00
2023-03-05T05:24:14.068Z,57.90
2023-03-05T05:26:40.897Z,57.90
2023-03-05T05:29:07.793Z,58.20
2023-03-05T05:31:34.847Z,58.30
2023-03-05T05:34:02.100Z,58.30
2023-03-05T05:36:29.086Z,58.40
2023-03-05T05:38:55.946Z,58.10
2023-03-05T05:41:23.200Z,57.10
2023-03-05T05:43:50.168Z,57.00
2023-03-05T05:46:19.462Z,57.10
2023-03-05T05:48:46.852Z,57.00
2023-03-05T05:51:19.234Z,57.10
2023-03-05T05:53:46.503Z,57.20
2023-03-05T05:56:14.794Z,57.50
2023-03-05T05:58:42.796Z,57.30
2023-03-05T06:01:18.446Z,57.40
2023-03-05T06:03:46.220Z,57.70
2023-03-05T06:06:14.645Z,57.70
2023-03-05T06:08:42.058Z,57.30
2023-03-05T06:11:09.386Z,57.30
2023-03-05T06:13:36.421Z,57.50
2023-03-05T06:16:06.587Z,57.60
2023-03-05T06:18:35.044Z,57.80
2023-03-05T06:21:04.788Z,57.50
2023-03-05T06:23:32.360Z,57.30
2023-03-05T06:26:01.103Z,57.90
2023-03-05T06:28:29.042Z,57.80
2023-03-05T06:31:06.147Z,57.90
2023-03-05T06:33:33.874Z,58.20
2023-03-05T06:36:07.444Z,57.90
2023-03-05T06:38:34.784Z,57.80
2023-03-05T06:41:06.782Z,57.70
2023-03-05T06:43:33.938Z,57.60
2023-03-05T06:46:28.638Z,57.70
2023-03-05T06:48:57.601Z,57.70
2023-03-05T06:51:30.987Z,58.00
2023-03-05T06:54:01.462Z,58.00
2023-03-05T06:56:28.705Z,58.00
2023-03-05T06:58:55.541Z,58.20
2023-03-05T07:01:23.708Z,57.30
2023-03-05T07:03:52.426Z,57.30
2023-03-05T07:06:19.856Z,57.50
2023-03-05T07:08:47.140Z,57.30
2023-03-05T07:11:16.966Z,57.30
2023-03-05T07:13:44.458Z,56.90
2023-03-05T07:16:15.712Z,56.80
2023-03-05T07:18:43.219Z,56.10
2023-03-05T07:21:15.008Z,56.00
2023-03-05T07:23:41.810Z,55.10
2023-03-05T07:26:08.808Z,55.50
2023-03-05T07:28:35.669Z,54.80
2023-03-05T07:31:05.545Z,54.70
2023-03-05T07:33:33.604Z,54.60
2023-03-05T07:36:01.398Z,54.80
2023-03-05T07:38:28.274Z,54.70
2023-03-05T07:40:55.256Z,54.30
2023-03-05T07:43:22.070Z,53.80
2023-03-05T07:45:50.171Z,54.00
2023-03-05T07:48:20.892Z,53.20
2023-03-05T07:50:48.427Z,52.60
2023-03-05T07:53:15.656Z,53.10
2023-03-05T07:55:46.815Z,53.30
2023-03-05T07:58:14.359Z,53.40
2023-03-05T08:00:41.353Z,52.60
2023-03-05T08:03:08.327Z,52.50
2023-03-05T08:05:35.251Z,52.80
2023-03-05T08:08:02.213Z,52.70
2023-03-05T08:10:28.985Z,52.10
2023-03-05T08:12:55.881Z,51.20
2023-03-05T08:15:22.860Z,50.80
2023-03-05T08:17:49.615Z,50.90
2023-03-05T08:20:16.701Z,50.90
2023-03-05T08:22:43.472Z,50.70
2023-03-05T08:25:10.317Z,50.70
2023-03-05T08:27:44.873Z,50.70
2023-03-05T08:30:14.720Z,50.70
2023-03-05T08:32:41.542Z,50.70
2023-03-05T08:35:09.567Z,50.40
2023-03-05T08:37:36.940Z,51.20
2023-03-05T08:40:05.203Z,50.50
2023-03-05T08:42:32.023Z,50.30
2023-03-05T08:44:59.150Z,50.30
2023-03-05T08:47:27.317Z,51.40
2023-03-05T08:49:57.705Z,51.90
2023-03-05T08:52:24.776Z,52.40
2023-03-05T08:54:51.621Z,50.70
2023-03-05T08:57:18.678Z,49.90
2023-03-05T08:59:45.414Z,48.60
2023-03-05T09:02:13.323Z,47.10
2023-03-05T09:04:40.702Z,46.20
2023-03-05T09:07:07.873Z,46.10
2023-03-05T09:09:34.780Z,45.80
2023-03-05T09:12:02.266Z,45.60
2023-03-05T09:14:29.679Z,45.30
2023-03-05T09:16:57.566Z,45.60
2023-03-05T09:19:25.151Z,45.80
2023-03-05T09:21:51.970Z,45.00
2023-03-05T09:24:18.839Z,44.40
2023-03-05T09:26:45.699Z,44.30
2023-03-05T09:29:12.618Z,43.60
2023-03-05T09:31:39.940Z,43.60
2023-03-05T09:34:08.279Z,43.20
2023-03-05T09:36:35.502Z,42.40
2023-03-05T09:39:04.031Z,42.00
2023-03-05T09:41:55.696Z,42.30
2023-03-05T09:44:51.782Z,42.20
2023-03-05T09:47:44.795Z,41.80
2023-03-05T09:50:11.561Z,41.80
2023-03-05T09:52:55.476Z,42.30
2023-03-05T09:55:27.837Z,43.90
2023-03-05T09:58:02.998Z,43.60
2023-03-05T10:00:47.134Z,44.00
2023-03-05T10:03:24.881Z,44.80
2023-03-05T10:06:04.034Z,44.10
2023-03-05T10:08:48.699Z,43.40
2023-03-05T10:11:41.273Z,43.10
2023-03-05T10:14:15.335Z,42.50
2023-03-05T10:17:05.821Z,42.90
2023-03-05T10:19:47.690Z,42.40
2023-03-05T10:22:19.675Z,42.60
2023-03-05T10:25:10.603Z,42.30
2023-03-05T10:27:43.162Z,42.80
2023-03-05T10:30:12.994Z,41.70
2023-03-05T10:32:50.676Z,41.40
2023-03-05T10:35:48.993Z,42.10
2023-03-05T10:38:36.790Z,42.30
2023-03-05T10:41:08.662Z,42.20
2023-03-05T10:43:57.328Z,42.10
2023-03-05T10:46:32.965Z,41.90
2023-03-05T10:49:22.747Z,41.20
2023-03-05T10:52:18.099Z,41.90
2023-03-05T10:54:45.440Z,42.80
2023-03-05T10:57:28.249Z,42.00
2023-03-05T11:00:17.020Z,41.50
2023-03-05T11:02:58.272Z,40.80
2023-03-05T11:05:42.505Z,40.70
2023-03-05T11:08:23.174Z,39.90
2023-03-05T11:11:23.290Z,40.40
2023-03-05T11:14:01.130Z,41.40
2023-03-05T11:16:29.581Z,40.80
2023-03-05T11:19:15.138Z,40.70
2023-03-05T11:21:43.710Z,40.80
2023-03-05T11:24:14.927Z,40.90
2023-03-05T11:26:48.126Z,41.00
2023-03-05T11:29:22.159Z,41.00
2023-03-05T11:31:49.805Z,41.00
2023-03-05T11:34:19.374Z,40.90
2023-03-05T11:36:55.502Z,40.10
2023-03-05T11:39:24.730Z,41.00
2023-03-05T11:42:25.095Z,40.50
2023-03-05T11:44:55.185Z,40.70
2023-03-05T11:47:34.263Z,40.70
2023-03-05T11:50:22.181Z,39.80
2023-03-05T11:52:51.928Z,40.10
2023-03-05T11:55:35.495Z,40.10
2023-03-05T11:58:23.977Z,40.30
2023-03-05T12:00:50.947Z,40.20
2023-03-05T12:03:20.694Z,40.90
2023-03-05T12:06:22.818Z,40.30
2023-03-05T12:08:54.404Z,40.80
2023-03-05T12:11:27.995Z,40.00
2023-03-05T12:14:19.798Z,40.80
2023-03-05T12:17:12.646Z,39.40
2023-03-05T12:19:48.765Z,40.00
2023-03-05T12:22:19.055Z,40.10
2023-03-05T12:24:47.428Z,40.50
2023-03-05T12:27:17.310Z,40.70
2023-03-05T12:29:47.839Z,41.00
2023-03-05T12:32:43.849Z,40.20
2023-03-05T12:35:23.035Z,40.60
2023-03-05T12:37:50.085Z,39.70
2023-03-05T12:40:22.529Z,40.90
2023-03-05T12:43:01.093Z,40.00
2023-03-05T12:45:29.746Z,40.60
2023-03-05T12:47:56.502Z,40.70
2023-03-05T12:50:47.969Z,39.80
2023-03-05T12:53:18.241Z,40.30
2023-03-05T12:55:48.069Z,40.50
2023-03-05T12:58:35.969Z,39.30
2023-03-05T13:01:33.141Z,38.30
2023-03-05T13:04:14.652Z,38.30
2023-03-05T13:06:41.607Z,40.10
2023-03-05T13:09:17.792Z,40.30
2023-03-05T13:11:51.372Z,39.20
2023-03-05T13:14:42.020Z,39.10
2023-03-05T13:17:27.356Z,39.30
2023-03-05T13:19:54.188Z,40.20
2023-03-05T13:22:21.123Z,40.50
2023-03-05T13:24:47.990Z,40.60
2023-03-05T13:27:29.755Z,39.80
2023-03-05T13:29:56.805Z,39.30
2023-03-05T13:32:28.408Z,38.20
2023-03-05T13:34:57.901Z,38.10
2023-03-05T13:37:27.420Z,38.40
2023-03-05T13:40:17.877Z,39.50
2023-03-05T13:42:44.770Z,39.60
2023-03-05T13:45:22.141Z,39.70
2023-03-05T13:47:54.858Z,38.90
2023-03-05T13:50:36.943Z,39.50
2023-03-05T13:53:24.871Z,40.00
2023-03-05T13:55:55.391Z,39.50
2023-03-05T13:58:48.014Z,40.00
2023-03-05T14:01:38.629Z,39.60
2023-03-05T14:04:14.678Z,40.00
2023-03-05T14:06:58.861Z,39.80
2023-03-05T14:09:39.453Z,39.60
2023-03-05T14:12:23.203Z,39.70
2023-03-05T14:14:50.634Z,39.90
2023-03-05T14:17:27.314Z,40.10
2023-03-05T14:20:27.654Z,39.90
2023-03-05T14:23:00.394Z,40.30
2023-03-05T14:25:38.723Z,40.20
2023-03-05T14:28:27.726Z,40.20
2023-03-05T14:30:56.816Z,40.20
2023-03-05T14:33:27.712Z,39.60
2023-03-05T14:35:55.802Z,40.20
2023-03-05T14:38:26.504Z,40.30
2023-03-05T14:40:53.539Z,40.40
2023-03-05T14:43:20.301Z,40.80
2023-03-05T14:45:47.971Z,40.40
2023-03-05T14:48:20.391Z,39.90
2023-03-05T14:50:57.191Z,39.50
2023-03-05T14:53:33.157Z,40.00
2023-03-05T14:56:00.019Z,40.50
2023-03-05T14:58:32.216Z,40.00
2023-03-05T15:00:59.573Z,41.00
2023-03-05T15:03:28.000Z,40.20
2023-03-05T15:05:57.687Z,40.50
2023-03-05T15:08:30.539Z,39.60
2023-03-05T15:10:58.137Z,39.20
2023-03-05T15:13:25.575Z,40.60
2023-03-05T15:15:53.403Z,39.20
2023-03-05T15:18:22.300Z,39.70
2023-03-05T15:20:51.985Z,39.70
2023-03-05T15:23:23.115Z,40.40
2023-03-05T15:25:50.389Z,39.60
2023-03-05T15:28:17.852Z,40.70
2023-03-05T15:30:47.040Z,39.90
2023-03-05T15:33:16.417Z,39.50
2023-03-05T15:35:43.633Z,39.90
2023-03-05T15:38:10.649Z,39.70
2023-03-05T15:40:37.475Z,40.00
2023-03-05T15:43:04.304Z,41.20
2023-03-05T15:45:31.572Z,40.80
2023-03-05T15:47:58.842Z,41.00
2023-03-05T15:50:25.955Z,41.50
2023-03-05T15:52:52.972Z,41.40
2023-03-05T15:55:20.395Z,40.40
2023-03-05T15:57:49.307Z,40.70
2023-03-05T16:00:26.535Z,41.20
2023-03-05T16:02:53.641Z,41.40
2023-03-05T16:05:20.829Z,41.10
2023-03-05T16:07:51.805Z,41.40
2023-03-05T16:10:23.991Z,42.00
2023-03-05T16:13:02.767Z,42.40
2023-03-05T16:15:31.839Z,42.60
2023-03-05T16:18:02.605Z,42.10
2023-03-05T16:20:29.796Z,41.80
2023-03-05T16:22:56.640Z,42.20
2023-03-05T16:25:23.514Z,42.30
2023-03-05T16:27:50.350Z,42.80
2023-03-05T16:30:17.525Z,42.90
2023-03-05T16:32:44.476Z,43.30
2023-03-05T16:35:14.945Z,43.80
2023-03-05T16:37:42.155Z,43.70
2023-03-05T16:40:11.511Z,43.20
2023-03-05T16:42:38.391Z,43.30
2023-03-05T16:45:06.632Z,43.80
2023-03-05T16:47:33.719Z,44.60
2023-03-05T16:50:00.990Z,45.40
2023-03-05T16:52:28.656Z,45.00
2023-03-05T16:54:55.680Z,44.90
2023-03-05T16:57:25.343Z,44.60
2023-03-05T16:59:52.826Z,45.20
2023-03-05T17:02:19.898Z,45.10
2023-03-05T17:04:46.764Z,44.70
2023-03-05T17:07:13.678Z,45.00
2023-03-05T17:09:41.011Z,46.00
2023-03-05T17:12:08.369Z,45.60
2023-03-05T17:14:35.200Z,45.20
2023-03-05T17:17:02.124Z,45.10
2023-03-05T17:19:28.866Z,45.50
2023-03-05T17:21:55.742Z,45.70
2023-03-05T17:24:22.902Z,46.10
2023-03-05T17:26:50.225Z,46.10
2023-03-05T17:29:18.910Z,45.80
2023-03-05T17:31:46.635Z,46.20
2023-03-05T17:34:13.591Z,46.40
2023-03-05T17:36:40.546Z,46.60
2023-03-05T17:39:08.751Z,47.00
2023-03-05T17:41:35.754Z,47.20
2023-03-05T17:44:02.648Z,47.00
2023-03-05T17:46:29.643Z,47.10
2023-03-05T17:48:56.506Z,47.60
2023-03-05T17:51:23.400Z,47.40
2023-03-05T17:53:50.242Z,47.50
2023-03-05T17:56:17.351Z,47.50
2023-03-05T17:58:44.269Z,47.50
2023-03-05T18:01:11.090Z,47.70
2023-03-05T18:03:38.087Z,48.20
2023-03-05T18:06:05.311Z,48.40
2023-03-05T18:08:32.333Z,48.20
2023-03-05T18:10:59.271Z,48.40
2023-03-05T18:13:26.369Z,48.10
2023-03-05T18:15:53.464Z,48.30
2023-03-05T18:18:20.327Z,48.00
2023-03-05T18:20:48.702Z,48.00
2023-03-05T18:23:15.667Z,48.10
2023-03-05T18:25:44.269Z,47.80
2023-03-05T18:28:13.073Z,48.10
2023-03-05T18:30:41.248Z,48.20
2023-03-05T18:33:13.328Z,48.40
2023-03-05T18:35:40.246Z,48.80
2023-03-05T18:38:07.140Z,49.20
2023-03-05T18:40:36.020Z,49.30
2023-03-05T18:43:03.785Z,49.30
2023-03-05T18:45:31.091Z,49.40
2023-03-05T18:47:57.901Z,49.20
2023-03-05T18:50:27.228Z,49.00
2023-03-05T18:52:54.454Z,49.10
2023-03-05T18:55:24.777Z,49.20
2023-03-05T18:57:51.880Z,49.20
2023-03-05T19:00:21.858Z,49.20
2023-03-05T19:02:48.854Z,49.50
2023-03-05T19:05:16.979Z,49.60
2023-03-05T19:07:44.609Z,49.80
2023-03-05T19:10:13.708Z,50.10
2023-03-05T19:12:55.280Z,49.90
2023-03-05T19:15:22.525Z,49.60
2023-03-05T19:17:49.615Z,49.60
2023-03-05T19:20:17.815Z,49.70
2023-03-05T19:22:44.719Z,49.80
2023-03-05T19:25:12.349Z,50.20
2023-03-05T19:27:39.648Z,50.00
2023-03-05T19:30:07.022Z,50.30
2023-03-05T19:32:34.118Z,50.70
2023-03-05T19:35:01.074Z,51.20
2023-03-05T19:37:28.168Z,50.90
2023-03-05T19:39:55.013Z,50.80
2023-03-05T19:42:21.851Z,50.90
2023-03-05T19:44:49.023Z,50.90
2023-03-05T19:47:15.800Z,50.90
2023-03-05T19:49:42.657Z,50.50
2023-03-05T19:52:09.568Z,50.80
2023-03-05T19:54:36.391Z,50.40
2023-03-05T19:57:03.503Z,50.80
2023-03-05T19:59:30.324Z,51.70
2023-03-05T20:01:57.547Z,51.80
2023-03-05T20:04:25.183Z,51.90
2023-03-05T20:06:52.006Z,51.90
2023-03-05T20:09:19.199Z,51.60
2023-03-05T20:11:47.114Z,51.50
2023-03-05T20:14:14.660Z,52.10
2023-03-05T20:16:43.326Z,51.50
2023-03-05T20:19:16.196Z,51.10
2023-03-05T20:21:43.263Z,51.60
2023-03-05T20:24:15.900Z,51.50
2023-03-05T20:26:44.042Z,51.30
2023-03-05T20:29:12.427Z,51.40
2023-03-05T20:31:39.608Z,51.30
2023-03-05T20:34:09.124Z,51.40
2023-03-05T20:36:35.896Z,51.70
2023-03-05T20:39:04.721Z,51.90
2023-03-05T20:41:33.855Z,51.90
2023-03-05T20:44:01.135Z,52.10
2023-03-05T20:46:30.320Z,52.40
2023-03-05T20:49:00.027Z,52.50
2023-03-05T20:51:33.082Z,52.60
2023-03-05T20:54:04.191Z,52.60
2023-03-05T20:56:32.902Z,52.90
2023-03-05T20:59:03.772Z,52.20
2023-03-05T21:01:32.942Z,51.90
2023-03-05T21:04:00.367Z,52.00
2023-03-05T21:06:29.278Z,52.20
2023-03-05T21:08:56.757Z,52.30
2023-03-05T21:11:23.654Z,52.40
2023-03-05T21:13:50.668Z,52.30
2023-03-05T21:16:21.117Z,52.10
2023-03-05T21:18:48.091Z,52.30
2023-03-05T21:21:15.865Z,52.10
2023-03-05T21:23:42.720Z,52.00
2023-03-05T21:26:09.626Z,52.20
2023-03-05T21:28:36.500Z,52.30
2023-03-05T21:31:09.703Z,52.20
2023-03-05T21:33:37.130Z,52.20
2023-03-05T21:36:05.938Z,52.10
2023-03-05T21:38:34.277Z,52.20
2023-03-05T21:41:02.421Z,52.40
2023-03-05T21:43:31.298Z,52.70
2023-03-05T21:46:00.713Z,53.00
2023-03-05T21:48:27.824Z,53.20
2023-03-05T21:50:55.468Z,53.60
2023-03-05T21:53:23.331Z,53.60
2023-03-05T21:56:16.673Z,53.80
2023-03-05T21:58:43.754Z,54.00
2023-03-05T22:01:11.809Z,53.50
2023-03-05T22:03:39.258Z,53.60
2023-03-05T22:06:13.733Z,53.30
2023-03-05T22:08:41.033Z,53.20
2023-03-05T22:11:12.609Z,53.80
2023-03-05T22:13:39.674Z,54.00
2023-03-05T22:16:07.154Z,53.80
2023-03-05T22:18:34.121Z,53.70
2023-03-05T22:21:01.724Z,53.90
2023-03-05T22:23:31.616Z,54.40
2023-03-05T22:26:00.806Z,54.10
2023-03-05T22:28:28.297Z,54.90
2023-03-05T22:30:56.184Z,55.60
2023-03-05T22:33:23.390Z,55.90
2023-03-05T22:35:50.842Z,55.80
2023-03-05T22:38:18.263Z,55.90
2023-03-05T22:40:47.528Z,55.70
2023-03-05T22:43:15.056Z,55.80
2023-03-05T22:45:42.154Z,56.10
2023-03-05T22:48:10.004Z,56.30
2023-03-05T22:50:38.154Z,56.20
2023-03-05T22:53:05.104Z,56.30
2023-03-05T22:55:32.066Z,56.20
2023-03-05T22:57:58.859Z,55.90
2023-03-05T23:00:26.766Z,56.00
2023-03-05T23:02:54.065Z,56.20
2023-03-05T23:05:21.206Z,56.60
2023-03-05T23:07:48.095Z,56.90
2023-03-05T23:10:20.649Z,57.00
2023-03-05T23:12:52.030Z,57.40
2023-03-05T23:15:28.322Z,57.50
2023-03-05T23:17:55.757Z,57.40
2023-03-05T23:20:25.376Z,57.70
2023-03-05T23:22:53.616Z,57.60
2023-03-05T23:25:20.778Z,57.70
2023-03-05T23:27:47.765Z,57.70
2023-03-05T23:30:27.914Z,57.80
2023-03-05T23:33:14.953Z,58.00
2023-03-05T23:35:49.197Z,58.10
2023-03-05T23:38:16.538Z,58.10
2023-03-05T23:40:46.825Z,57.80
2023-03-05T23:43:14.517Z,57.50
2023-03-05T23:45:43.387Z,57.80
2023-03-05T23:48:11.046Z,57.50
2023-03-05T23:50:40.556Z,57.60
2023-03-05T23:53:07.591Z,57.30
2023-03-05T23:55:45.815Z,57.20
2023-03-05T23:58:13.156Z,57.20
